Time;durP1;ratioP1;P1;durP2;ratioP2;P2;SDS_P1;SDS_P2;PMS_P1;PMS_P2;Temp;Humidity;BMP_temperature;BMP_pressure;BME280_temperature;BME280_humidity;BME280_pressure;Samples;Min_cycle;Max_cycle;Signal;HPM_P1;HPM_P2
2022/10/27 00:01:14;;;;;;;;;;;;;;;15.68;66.20;96252.25;5054165;28;20036;-67
2022/10/27 00:03:39;;;;;;;;;;;;;;;15.68;66.17;96246.13;5068517;28;20069;-67
2022/10/27 00:06:06;;;;;;;;;;;;;;;15.66;66.32;96249.13;5069232;28;20059;-66
2022/10/27 00:08:31;;;;;;;;;;;;;;;15.65;66.13;96244.81;5068265;28;20013;-66
2022/10/27 00:10:58;;;;;;;;;;;;;;;15.63;66.04;96248.91;5069670;28;20045;-66
2022/10/27 00:13:24;;;;;;;;;;;;;;;15.60;66.16;96250.28;5069243;28;20493;-66
2022/10/27 00:15:56;;;;;;;;;;;;;;;15.57;66.14;96241.00;5083721;28;20024;-66
2022/10/27 00:18:21;;;;;;;;;;;;;;;15.54;66.14;96265.72;5069414;28;20071;-66
2022/10/27 00:20:55;;;;;;;;;;;;;;;15.50;66.03;96251.34;5069842;28;20061;-66
2022/10/27 00:23:20;;;;;;;;;;;;;;;15.47;66.06;96241.25;5069236;28;20016;-67
2022/10/27 00:25:50;;;;;;;;;;;;;;;15.44;66.26;96241.84;5068969;28;20421;-67
2022/10/27 00:28:16;;;;;;;;;;;;;;;15.43;66.39;96245.66;5069561;28;20096;-67
2022/10/27 00:30:41;;;;;;;;;;;;;;;15.42;66.35;96238.69;5084968;28;20457;-67
2022/10/27 00:33:06;;;;;;;;;;;;;;;15.40;66.46;96240.88;5069467;28;20108;-67
2022/10/27 00:35:34;;;;;;;;;;;;;;;15.39;66.42;96244.66;5068746;28;20013;-67
2022/10/27 00:38:00;;;;;;;;;;;;;;;15.39;66.82;96246.56;5069504;28;20013;-67
2022/10/27 00:40:25;;;;;;;;;;;;;;;15.38;66.55;96243.09;5069354;28;20062;-67
2022/10/27 00:42:50;;;;;;;;;;;;;;;15.39;66.58;96249.25;5069367;28;20013;-67
2022/10/27 00:45:15;;;;;;;;;;;;;;;15.37;66.87;96244.19;5084226;28;20549;-67
2022/10/27 00:47:41;;;;;;;;;;;;;;;15.36;66.57;96245.31;5063560;28;20013;-67
2022/10/27 00:50:17;;;;;;;;;;;;;;;15.34;66.58;96242.13;5049575;28;20017;-67
2022/10/27 00:52:57;;;;;;;;;;;;;;;15.30;66.85;96250.00;5053030;28;20009;-67
2022/10/27 00:55:29;;;;;;;;;;;;;;;15.28;66.69;96252.19;5052607;28;20009;-67
2022/10/27 00:57:56;;;;;;;;;;;;;;;15.29;66.67;96255.66;5059300;28;20013;-67
2022/10/27 01:00:21;;;;;;;;;;;;;;;15.25;66.61;96249.31;5060423;28;20465;-67
2022/10/27 01:02:47;;;;;;;;;;;;;;;15.24;66.90;96247.72;5053021;28;20055;-67
2022/10/27 01:05:32;;;;;;;;;;;;;;;15.22;66.83;96253.41;5052279;28;20494;-67
2022/10/27 01:07:59;;;;;;;;;;;;;;;15.21;66.99;96253.72;5052515;28;20456;-67
2022/10/27 01:10:25;;;;;;;;;;;;;;;15.19;66.63;96261.25;5059760;28;20459;-66
2022/10/27 01:12:51;;;;;;;;;;;;;;;15.16;66.83;96251.97;5072528;28;20048;-67
2022/10/27 01:15:16;;;;;;;;;;;;;;;15.14;66.97;96256.03;5071701;28;20058;-67
2022/10/27 01:17:48;;;;;;;;;;;;;;;15.12;67.02;96247.50;5072107;28;20013;-67
2022/10/27 01:20:13;;;;;;;;;;;;;;;15.10;67.01;96253.19;5072068;28;20572;-67
2022/10/27 01:22:41;;;;;;;;;;;;;;;15.08;66.96;96260.72;5072423;28;20044;-67
2022/10/27 01:25:20;;;;;;;;;;;;;;;15.06;67.17;96254.88;5070692;28;20021;-67
2022/10/27 01:28:08;;;;;;;;;;;;;;;15.04;67.22;96252.50;5072142;28;20009;-67
2022/10/27 01:30:49;;;;;;;;;;;;;;;15.02;66.80;96249.34;5083186;28;20024;-66
2022/10/27 01:33:21;;;;;;;;;;;;;;;15.02;66.90;96257.38;5052468;28;20470;-67
2022/10/27 01:35:54;;;;;;;;;;;;;;;15.00;66.80;96253.44;5051997;28;20079;-67
2022/10/27 01:38:19;;;;;;;;;;;;;;;14.87;67.04;96243.53;5056722;28;20021;-68
2022/10/27 01:40:45;;;;;;;;;;;;;;;14.96;66.77;96255.91;5070809;28;20355;-67
2022/10/27 01:43:14;;;;;;;;;;;;;;;14.94;66.90;96251.94;5072094;28;20009;-67
2022/10/27 01:45:40;;;;;;;;;;;;;;;14.93;67.22;96259.19;5071684;28;20116;-68
2022/10/27 01:48:07;;;;;;;;;;;;;;;14.91;67.10;96248.00;5071841;28;20016;-65
2022/10/27 01:50:33;;;;;;;;;;;;;;;14.90;66.97;96251.00;5083302;28;20024;-67
2022/10/27 01:52:59;;;;;;;;;;;;;;;14.91;66.96;96248.00;5051857;28;20018;-66
2022/10/27 01:55:30;;;;;;;;;;;;;;;14.90;67.15;96243.75;5051590;28;20009;-67
2022/10/27 01:58:02;;;;;;;;;;;;;;;14.87;67.14;96247.00;5051837;28;20051;-67
2022/10/27 02:00:30;;;;;;;;;;;;;;;14.85;67.18;96240.41;5051895;28;20117;-67
2022/10/27 02:03:05;;;;;;;;;;;;;;;14.83;66.87;96251.38;5072479;28;20506;-67
2022/10/27 02:05:48;;;;;;;;;;;;;;;14.80;66.85;96244.78;5091631;28;20023;-67
2022/10/27 02:08:18;;;;;;;;;;;;;;;14.79;67.19;96250.41;5092026;28;20017;-67
2022/10/27 02:10:49;;;;;;;;;;;;;;;14.78;67.30;96252.28;5091797;28;20479;-67
2022/10/27 02:13:14;;;;;;;;;;;;;;;14.76;66.92;96251.03;5090564;28;20032;-67
2022/10/27 02:15:45;;;;;;;;;;;;;;;14.77;67.36;96252.59;5073701;28;20017;-67
2022/10/27 02:18:13;;;;;;;;;;;;;;;14.75;67.27;96246.78;5071528;28;20016;-67
2022/10/27 02:20:41;;;;;;;;;;;;;;;14.70;66.83;96255.72;5070436;28;20021;-67
2022/10/27 02:23:07;;;;;;;;;;;;;;;14.67;66.92;96250.94;5070809;28;20009;-67
2022/10/27 02:25:41;;;;;;;;;;;;;;;14.64;66.94;96254.25;5086311;28;20087;-67
2022/10/27 02:28:08;;;;;;;;;;;;;;;14.61;67.19;96254.06;5071127;28;20009;-68
2022/10/27 02:30:34;;;;;;;;;;;;;;;14.59;67.08;96249.00;5071197;28;20005;-67
2022/10/27 02:32:59;;;;;;;;;;;;;;;14.57;67.55;96257.31;5070936;28;20062;-67
2022/10/27 02:35:25;;;;;;;;;;;;;;;14.56;67.43;96247.72;5070694;28;20015;-67
2022/10/27 02:37:50;;;;;;;;;;;;;;;14.55;67.47;96254.16;5071009;28;20108;-67
2022/10/27 02:40:16;;;;;;;;;;;;;;;14.53;67.28;96248.31;5070943;28;20009;-67
2022/10/27 02:42:41;;;;;;;;;;;;;;;14.52;67.17;96249.41;5070976;28;20017;-67
2022/10/27 02:45:06;;;;;;;;;;;;;;;14.51;67.28;96247.03;5069141;28;20099;-65
2022/10/27 02:47:31;;;;;;;;;;;;;;;14.50;67.56;96240.91;5069695;28;20477;-66
2022/10/27 02:49:57;;;;;;;;;;;;;;;14.52;67.63;96248.63;5070806;28;20107;-66
2022/10/27 02:52:22;;;;;;;;;;;;;;;14.49;67.12;96250.03;5070658;28;20031;-66
2022/10/27 02:54:47;;;;;;;;;;;;;;;14.49;67.36;96260.72;5070609;28;20020;-66
2022/10/27 02:57:16;;;;;;;;;;;;;;;14.46;67.37;96255.94;5068480;28;20041;-66
2022/10/27 02:59:41;;;;;;;;;;;;;;;14.44;67.32;96257.34;5070636;28;20023;-66
2022/10/27 03:02:07;;;;;;;;;;;;;;;14.43;67.46;96253.84;5069372;28;20108;-66
2022/10/27 03:04:32;;;;;;;;;;;;;;;14.44;67.15;96257.34;5070927;28;20019;-66
2022/10/27 03:06:57;;;;;;;;;;;;;;;14.42;67.17;96251.47;5090080;28;20020;-65
2022/10/27 03:09:23;;;;;;;;;;;;;;;14.39;67.54;96258.25;5090353;28;20009;-67
2022/10/27 03:11:48;;;;;;;;;;;;;;;14.40;67.52;96256.34;5090655;28;20016;-67
2022/10/27 03:14:13;;;;;;;;;;;;;;;14.39;67.16;96249.44;5087140;28;20027;-66
2022/10/27 03:16:38;;;;;;;;;;;;;;;14.36;66.78;96250.00;5069806;28;20008;-66
2022/10/27 03:19:04;;;;;;;;;;;;;;;14.32;66.90;96255.16;5070194;28;20100;-66
2022/10/27 03:21:29;;;;;;;;;;;;;;;14.28;67.25;96249.66;5069473;28;20183;-66
2022/10/27 03:23:54;;;;;;;;;;;;;;;14.23;66.70;96247.06;5069592;28;20018;-67
2022/10/27 03:26:19;;;;;;;;;;;;;;;14.23;66.95;96251.63;5069639;28;20354;-66
2022/10/27 03:28:45;;;;;;;;;;;;;;;14.23;67.43;96248.97;5069900;28;20009;-67
2022/10/27 03:31:10;;;;;;;;;;;;;;;14.20;67.60;96246.88;5070105;28;20155;-66
2022/10/27 03:33:35;;;;;;;;;;;;;;;14.22;67.55;96252.69;5081760;28;20121;-67
2022/10/27 03:36:00;;;;;;;;;;;;;;;14.23;67.00;96251.63;5049547;28;20427;-68
2022/10/27 03:38:26;;;;;;;;;;;;;;;14.23;66.85;96259.66;5049932;28;20539;-67
2022/10/27 03:40:51;;;;;;;;;;;;;;;14.20;66.52;96254.91;5049999;28;20553;-66
2022/10/27 03:43:16;;;;;;;;;;;;;;;14.15;66.71;96247.75;5050221;28;20020;-65
2022/10/27 03:45:41;;;;;;;;;;;;;;;14.10;66.68;96245.19;5062580;28;20025;-66
2022/10/27 03:48:09;;;;;;;;;;;;;;;14.09;66.63;96250.84;5070128;28;20062;-65
2022/10/27 03:50:35;;;;;;;;;;;;;;;14.04;66.59;96249.84;5070004;28;20116;-66
2022/10/27 03:53:02;;;;;;;;;;;;;;;14.01;66.34;96247.78;5070091;28;20734;-66
2022/10/27 03:55:27;;;;;;;;;;;;;;;13.96;66.27;96242.53;5069862;28;20373;-65
2022/10/27 03:57:52;;;;;;;;;;;;;;;13.94;66.34;96254.63;5069448;28;20021;-66
2022/10/27 04:00:18;;;;;;;;;;;;;;;13.91;66.46;96253.31;5069831;28;20034;-67
2022/10/27 04:02:43;;;;;;;;;;;;;;;13.89;66.85;96257.41;5069853;28;20017;-67
2022/10/27 04:05:09;;;;;;;;;;;;;;;13.86;66.89;96264.13;5085130;28;20029;-66
2022/10/27 04:07:34;;;;;;;;;;;;;;;13.83;66.88;96267.41;5069555;28;20075;-66
2022/10/27 04:09:59;;;;;;;;;;;;;;;13.65;67.47;96265.59;5069187;28;20524;-67
2022/10/27 04:12:25;;;;;;;;;;;;;;;13.71;67.79;96262.53;5069521;28;20024;-66
2022/10/27 04:14:50;;;;;;;;;;;;;;;13.73;67.51;96264.91;5066464;28;20021;-67
2022/10/27 04:17:16;;;;;;;;;;;;;;;13.72;67.01;96268.69;5069775;28;20017;-67
2022/10/27 04:19:41;;;;;;;;;;;;;;;13.72;67.43;96268.69;5085104;28;20014;-66
2022/10/27 04:22:07;;;;;;;;;;;;;;;13.71;67.10;96272.44;5068360;28;20017;-71
2022/10/27 04:24:32;;;;;;;;;;;;;;;13.69;67.15;96269.25;5084266;28;20374;-68
2022/10/27 04:26:58;;;;;;;;;;;;;;;13.64;67.20;96278.16;5073149;28;20032;-65
2022/10/27 04:29:23;;;;;;;;;;;;;;;13.64;67.28;96275.50;5088832;28;20020;-68
2022/10/27 04:31:48;;;;;;;;;;;;;;;13.62;66.96;96279.56;5073560;28;20036;-66
2022/10/27 04:34:13;;;;;;;;;;;;;;;13.59;67.58;96274.78;5072830;28;20393;-65
2022/10/27 04:36:38;;;;;;;;;;;;;;;13.58;67.33;96281.25;5072824;28;20024;-66
2022/10/27 04:39:04;;;;;;;;;;;;;;;13.55;67.24;96277.25;5063959;28;20389;-67
2022/10/27 04:41:30;;;;;;;;;;;;;;;13.53;67.14;96282.13;5061268;28;20013;-68
2022/10/27 04:43:55;;;;;;;;;;;;;;;13.45;67.48;96280.09;5062030;28;20017;-69
2022/10/27 04:46:20;;;;;;;;;;;;;;;13.46;67.46;96282.50;5065455;28;20087;-68
2022/10/27 04:48:45;;;;;;;;;;;;;;;13.43;67.10;96275.06;5071861;28;20016;-68
2022/10/27 04:51:11;;;;;;;;;;;;;;;13.42;67.17;96272.69;5072900;28;20465;-67
2022/10/27 04:53:36;;;;;;;;;;;;;;;13.36;67.11;96277.34;5072990;28;20531;-67
2022/10/27 04:56:01;;;;;;;;;;;;;;;13.35;66.98;96281.06;5072016;28;20024;-67
2022/10/27 04:58:26;;;;;;;;;;;;;;;13.31;66.98;96277.44;5071963;28;20111;-67
2022/10/27 05:00:51;;;;;;;;;;;;;;;13.28;67.08;96278.00;5088342;28;20024;-68
2022/10/27 05:03:17;;;;;;;;;;;;;;;13.26;66.90;96277.50;5073010;28;20009;-68
2022/10/27 05:05:42;;;;;;;;;;;;;;;13.24;66.77;96275.13;5087774;28;20094;-68
2022/10/27 05:08:09;;;;;;;;;;;;;;;13.23;66.92;96278.09;5072293;28;20017;-68
2022/10/27 05:10:34;;;;;;;;;;;;;;;13.22;66.70;96282.63;5072469;28;20032;-68
2022/10/27 05:12:59;;;;;;;;;;;;;;;13.18;66.64;96280.81;5072776;28;20474;-67
2022/10/27 05:15:26;;;;;;;;;;;;;;;13.14;66.66;96283.25;5071726;28;20017;-67
2022/10/27 05:17:51;;;;;;;;;;;;;;;13.11;66.57;96277.72;5071373;28;20017;-68
2022/10/27 05:20:17;;;;;;;;;;;;;;;13.08;66.74;96281.75;5071173;28;20023;-69
2022/10/27 05:22:42;;;;;;;;;;;;;;;13.06;67.11;96281.28;5070260;28;20085;-70
2022/10/27 05:25:08;;;;;;;;;;;;;;;13.08;67.64;96276.41;5071331;28;20071;-69
2022/10/27 05:27:33;;;;;;;;;;;;;;;13.10;67.24;96279.56;5051114;28;20474;-69
2022/10/27 05:29:58;;;;;;;;;;;;;;;13.19;67.73;96274.38;5071834;28;20020;-69
2022/10/27 05:32:24;;;;;;;;;;;;;;;13.21;67.40;96275.72;5068957;28;20017;-67
2022/10/27 05:34:49;;;;;;;;;;;;;;;13.18;67.17;96276.25;5065467;28;20021;-67
2022/10/27 05:37:14;;;;;;;;;;;;;;;13.19;67.21;96266.34;5064277;28;20011;-68
2022/10/27 05:39:39;;;;;;;;;;;;;;;13.24;67.05;96277.00;5071079;28;20112;-66
2022/10/27 05:42:05;;;;;;;;;;;;;;;13.23;66.65;96264.72;5071158;28;20056;-66
2022/10/27 05:44:30;;;;;;;;;;;;;;;13.20;66.29;96278.63;5084974;28;20507;-66
2022/10/27 05:46:55;;;;;;;;;;;;;;;13.20;66.42;96291.97;5069212;28;20758;-68
2022/10/27 05:49:20;;;;;;;;;;;;;;;13.17;66.35;96287.25;5088739;28;20064;-68
2022/10/27 05:51:48;;;;;;;;;;;;;;;13.18;66.36;96283.47;5070873;28;20021;-68
2022/10/27 05:54:13;;;;;;;;;;;;;;;13.18;66.61;96280.81;5052860;28;20014;-69
2022/10/27 05:56:38;;;;;;;;;;;;;;;13.17;66.78;96287.25;5081619;28;20135;-67
2022/10/27 05:59:03;;;;;;;;;;;;;;;13.16;66.71;96285.66;5070542;28;20024;-67
2022/10/27 06:01:28;;;;;;;;;;;;;;;13.15;66.43;96292.84;5059185;28;20025;-73
2022/10/27 06:03:54;;;;;;;;;;;;;;;13.18;66.32;96296.84;5082615;28;20059;-70
2022/10/27 06:06:19;;;;;;;;;;;;;;;13.19;66.30;96293.06;5084763;28;20024;-66
2022/10/27 06:08:44;;;;;;;;;;;;;;;13.18;66.09;96299.50;5086498;28;20017;-69
2022/10/27 06:11:09;;;;;;;;;;;;;;;13.18;66.09;96312.88;5070079;28;20480;-67
2022/10/27 06:13:34;;;;;;;;;;;;;;;13.18;65.99;96312.88;5086258;28;20078;-67
2022/10/27 06:16:00;;;;;;;;;;;;;;;13.19;66.17;96314.44;5085512;28;20009;-68
2022/10/27 06:18:25;;;;;;;;;;;;;;;13.19;66.23;96309.91;5067529;28;20024;-67
2022/10/27 06:20:50;;;;;;;;;;;;;;;13.22;66.32;96311.22;5069835;28;20013;-68
2022/10/27 06:23:15;;;;;;;;;;;;;;;13.24;66.34;96312.53;5070506;28;20017;-67
2022/10/27 06:25:40;;;;;;;;;;;;;;;13.28;66.04;96312.72;5071813;28;20021;-67
2022/10/27 06:28:06;;;;;;;;;;;;;;;13.35;66.10;96323.03;5069888;28;20013;-68
2022/10/27 06:30:31;;;;;;;;;;;;;;;13.38;65.98;96317.91;5084784;28;20012;-69
2022/10/27 06:32:56;;;;;;;;;;;;;;;13.42;65.85;96326.94;5083515;28;20481;-74
2022/10/27 06:35:21;;;;;;;;;;;;;;;13.46;65.83;96325.28;5068738;28;20071;-68
2022/10/27 06:37:47;;;;;;;;;;;;;;;13.52;65.80;96318.75;5070735;28;20522;-70
2022/10/27 06:40:15;;;;;;;;;;;;;;;13.57;65.52;96325.09;5070485;28;20560;-67
2022/10/27 06:42:40;;;;;;;;;;;;;;;13.60;65.50;96324.50;5084392;28;20404;-69
2022/10/27 06:45:06;;;;;;;;;;;;;;;13.64;65.37;96336.19;5064820;28;20017;-68
2022/10/27 06:47:31;;;;;;;;;;;;;;;13.68;65.80;96334.53;5068948;28;20017;-68
2022/10/27 06:49:56;;;;;;;;;;;;;;;13.73;65.72;96329.88;5070695;28;20674;-70
2022/10/27 06:52:21;;;;;;;;;;;;;;;13.77;65.46;96330.09;5069451;28;20032;-70
2022/10/27 06:54:47;;;;;;;;;;;;;;;13.73;64.78;96332.56;5069010;28;20017;-69
2022/10/27 06:57:12;;;;;;;;;;;;;;;13.79;65.67;96335.94;5060908;28;20013;-70
2022/10/27 06:59:37;;;;;;;;;;;;;;;13.87;65.86;96345.97;5085056;28;20013;-69
2022/10/27 07:02:03;;;;;;;;;;;;;;;13.94;65.51;96343.69;5069520;28;20474;-68
2022/10/27 07:04:28;;;;;;;;;;;;;;;14.02;65.82;96342.19;5061820;28;20020;-67
2022/10/27 07:06:54;;;;;;;;;;;;;;;14.09;65.57;96342.59;5064148;28;20047;-66
2022/10/27 07:09:19;;;;;;;;;;;;;;;14.18;65.63;96338.16;5084353;28;20104;-68
2022/10/27 07:11:44;;;;;;;;;;;;;;;14.25;65.34;96337.75;5083824;28;20017;-68
2022/10/27 07:14:09;;;;;;;;;;;;;;;14.36;65.29;96338.34;5066910;28;20013;-68
2022/10/27 07:16:34;;;;;;;;;;;;;;;14.45;65.55;96339.22;5065488;28;20017;-68
2022/10/27 07:19:00;;;;;;;;;;;;;;;14.52;65.16;96343.09;5068755;28;20017;-68
2022/10/27 07:21:26;;;;;;;;;;;;;;;14.59;64.98;96334.69;5069220;28;20071;-68
2022/10/27 07:23:51;;;;;;;;;;;;;;;14.71;65.64;96339.53;5084188;28;20019;-68
2022/10/27 07:26:17;;;;;;;;;;;;;;;14.81;65.45;96336.63;5084559;28;20120;-69
2022/10/27 07:28:42;;;;;;;;;;;;;;;14.96;65.35;96343.53;5068133;28;20082;-67
2022/10/27 07:31:07;;;;;;;;;;;;;;;15.07;65.32;96347.56;5068544;28;20013;-68
2022/10/27 07:33:32;;;;;;;;;;;;;;;15.20;64.96;96343.25;5076182;28;20029;-67
2022/10/27 07:35:58;;;;;;;;;;;;;;;15.28;64.95;96342.53;5047387;28;20013;-67
2022/10/27 07:38:23;;;;;;;;;;;;;;;15.41;64.78;96343.59;5049992;28;20010;-67
2022/10/27 07:40:49;;;;;;;;;;;;;;;15.51;64.96;96346.81;5049960;28;20017;-67
2022/10/27 07:43:14;;;;;;;;;;;;;;;15.62;64.27;96354.59;5082623;28;20370;-67
2022/10/27 07:45:40;;;;;;;;;;;;;;;15.72;64.45;96357.84;5069329;28;20023;-67
2022/10/27 07:48:06;;;;;;;;;;;;;;;15.79;64.46;96368.13;5069805;28;20449;-67
2022/10/27 07:50:32;;;;;;;;;;;;;;;15.88;63.96;96366.31;5069458;28;20017;-68
2022/10/27 07:52:58;;;;;;;;;;;;;;;16.02;63.83;96367.00;5068105;28;20127;-67
2022/10/27 07:55:24;;;;;;;;;;;;;;;16.16;63.44;96358.84;5068087;28;20124;-67
2022/10/27 07:58:00;;;;;;;;;;;;;;;16.27;63.29;96359.34;5069961;28;20377;-68
2022/10/27 08:00:25;;;;;;;;;;;;;;;16.35;63.00;96364.78;5067682;28;20026;-68
2022/10/27 08:02:50;;;;;;;;;;;;;;;16.46;62.62;96372.53;5085629;28;20021;-68
2022/10/27 08:05:15;;;;;;;;;;;;;;;16.56;62.17;96362.31;4985739;22;20441;-65
2022/10/27 08:07:40;;;;;;;;;;;;;;;16.66;61.98;96358.53;4967942;28;20022;-66
2022/10/27 08:10:06;;;;;;;;;;;;;;;16.76;61.71;96354.81;4968247;28;20038;-66
2022/10/27 08:12:40;;;;;;;;;;;;;;;16.86;61.15;96360.66;4968077;28;20015;-65
2022/10/27 08:15:06;;;;;;;;;;;;;;;16.94;60.70;96355.59;4966067;28;20015;-66
2022/10/27 08:17:31;;;;;;;;;;;;;;;16.99;60.54;96352.75;4968081;28;20015;-65
2022/10/27 08:19:57;;;;;;;;;;;;;;;17.11;60.56;96351.03;4968137;28;20413;-65
2022/10/27 08:22:22;;;;;;;;;;;;;;;17.20;59.67;96347.56;4968060;28;20007;-65
2022/10/27 08:24:47;;;;;;;;;;;;;;;17.24;59.24;96351.19;4967687;28;20037;-66
2022/10/27 08:27:12;;;;;;;;;;;;;;;17.37;59.49;96348.34;4966317;28;20064;-65
2022/10/27 08:29:38;;;;;;;;;;;;;;;17.47;59.24;96349.94;4968000;28;20011;-65
2022/10/27 08:32:03;;;;;;;;;;;;;;;17.54;58.65;96347.53;4964889;28;20026;-65
2022/10/27 08:34:29;;;;;;;;;;;;;;;17.63;58.21;96350.22;4967989;28;20018;-65
2022/10/27 08:36:54;;;;;;;;;;;;;;;17.73;58.12;96352.59;4967282;28;20073;-65
2022/10/27 08:39:19;;;;;;;;;;;;;;;17.84;58.14;96348.47;4968058;28;20486;-65
2022/10/27 08:42:20;;;;;;;;;;;;;;;17.90;57.42;96343.69;4964183;28;20022;-66
2022/10/27 08:44:49;;;;;;;;;;;;;;;18.01;57.10;96336.84;4945604;28;20042;-65
2022/10/27 08:47:25;;;;;;;;;;;;;;;18.13;57.16;96341.56;4963568;28;20014;-65
2022/10/27 08:49:59;;;;;;;;;;;;;;;18.21;56.66;96342.63;4966231;28;20368;-65
2022/10/27 08:52:24;;;;;;;;;;;;;;;18.32;56.42;96346.53;4967563;28;20071;-65
2022/10/27 08:54:51;;;;;;;;;;;;;;;18.36;55.66;96344.78;4967469;28;20410;-65
2022/10/27 08:57:24;;;;;;;;;;;;;;;18.46;55.32;96344.44;4967648;28;20011;-66
2022/10/27 08:59:53;;;;;;;;;;;;;;;18.55;55.03;96347.09;4965560;28;20027;-66
2022/10/27 09:02:33;;;;;;;;;;;;;;;18.48;54.94;96344.91;4967539;28;20479;-66
2022/10/27 09:05:16;;;;;;;;;;;;;;;18.66;54.89;96349.06;4967023;28;20022;-65
2022/10/27 09:07:47;;;;;;;;;;;;;;;18.82;54.56;96345.84;4967564;28;20015;-65
2022/10/27 09:10:19;;;;;;;;;;;;;;;18.87;54.69;96342.94;4966042;28;20015;-66
2022/10/27 09:12:50;;;;;;;;;;;;;;;18.92;54.48;96345.44;4969862;28;20025;-66
2022/10/27 09:15:34;;;;;;;;;;;;;;;18.88;53.69;96339.91;4970321;28;20379;-65
2022/10/27 09:18:03;;;;;;;;;;;;;;;19.10;53.65;96348.84;4970585;28;20063;-65
2022/10/27 09:20:35;;;;;;;;;;;;;;;19.21;53.42;96347.31;4970537;28;20017;-65
2022/10/27 09:23:02;;;;;;;;;;;;;;;19.23;53.49;96336.97;4969240;28;20050;-66
2022/10/27 09:25:28;;;;;;;;;;;;;;;19.36;53.14;96345.94;4969797;28;20384;-65
2022/10/27 09:27:55;;;;;;;;;;;;;;;19.44;52.83;96340.44;4970481;28;20011;-66
2022/10/27 09:30:21;;;;;;;;;;;;;;;19.51;52.77;96339.91;4968435;28;20042;-65
2022/10/27 09:32:50;;;;;;;;;;;;;;;19.60;52.69;96345.25;4968482;28;20474;-65
2022/10/27 09:35:17;;;;;;;;;;;;;;;19.64;52.40;96341.56;4969783;28;20011;-66
2022/10/27 09:37:43;;;;;;;;;;;;;;;19.72;51.97;96337.19;4970378;28;20011;-66
2022/10/27 09:40:10;;;;;;;;;;;;;;;19.77;51.45;96341.59;4968671;28;20034;-66
2022/10/27 09:42:35;;;;;;;;;;;;;;;19.87;51.41;96328.47;4970069;28;20014;-65
2022/10/27 09:45:01;;;;;;;;;;;;;;;19.91;51.23;96332.06;4969792;28;20578;-65
2022/10/27 09:47:34;;;;;;;;;;;;;;;20.02;51.37;96331.66;4970078;28;20018;-65
2022/10/27 09:50:02;;;;;;;;;;;;;;;20.09;51.22;96326.47;4970136;28;20026;-66
2022/10/27 09:52:30;;;;;;;;;;;;;;;20.14;51.16;96331.66;4968470;28;20045;-66
2022/10/27 09:54:56;;;;;;;;;;;;;;;20.23;50.83;96327.72;4968606;28;20056;-66
2022/10/27 09:57:27;;;;;;;;;;;;;;;20.31;50.67;96325.25;4970049;28;20576;-66
2022/10/27 09:59:56;;;;;;;;;;;;;;;20.40;50.76;96324.00;4969846;28;20533;-66
2022/10/27 10:02:22;;;;;;;;;;;;;;;20.36;50.42;96331.22;4969940;28;20110;-66
2022/10/27 10:04:49;;;;;;;;;;;;;;;20.39;50.46;96325.13;4968315;28;20591;-66
2022/10/27 10:07:26;;;;;;;;;;;;;;;20.54;50.22;96320.22;4969414;28;20039;-66
2022/10/27 10:09:59;;;;;;;;;;;;;;;20.56;50.06;96317.94;4969914;28;20046;-66
2022/10/27 10:12:25;;;;;;;;;;;;;;;20.72;50.05;96322.31;4969542;28;20471;-65
2022/10/27 10:15:07;;;;;;;;;;;;;;;20.78;49.56;96328.31;4969659;28;20006;-66
2022/10/27 10:17:32;;;;;;;;;;;;;;;20.68;49.31;96317.97;4968402;28;20029;-65
2022/10/27 10:19:57;;;;;;;;;;;;;;;20.78;49.17;96320.19;4969510;28;20011;-65
2022/10/27 10:22:33;;;;;;;;;;;;;;;20.91;49.23;96334.47;4969399;28;20018;-66
2022/10/27 10:25:19;;;;;;;;;;;;;;;21.00;48.99;96330.50;4965056;28;20076;-66
2022/10/27 10:27:48;;;;;;;;;;;;;;;21.02;48.53;96327.47;4969287;28;20444;-66
2022/10/27 10:30:17;;;;;;;;;;;;;;;21.00;48.47;96327.03;4969652;28;20007;-65
2022/10/27 10:32:46;;;;;;;;;;;;;;;21.15;48.34;96323.59;4969504;28;20046;-66
2022/10/27 10:35:30;;;;;;;;;;;;;;;21.26;48.10;96324.69;4967135;28;20023;-66
2022/10/27 10:37:55;;;;;;;;;;;;;;;21.07;47.71;96286.63;4967610;28;20019;-65
2022/10/27 10:40:25;;;;;;;;;;;;;;;21.43;47.27;96326.34;4945136;29;21391;-65
2022/10/27 10:43:04;;;;;;;;;;;;;;;21.49;47.11;96326.88;4946060;28;20073;-66
2022/10/27 10:45:32;;;;;;;;;;;;;;;21.49;45.77;96318.75;4930967;29;20074;-66
2022/10/27 10:48:20;;;;;;;;;;;;;;;21.54;45.71;96313.88;4960401;28;20341;-65
2022/10/27 10:50:49;;;;;;;;;;;;;;;21.62;46.17;96314.88;4969633;28;20014;-66
2022/10/27 10:53:27;;;;;;;;;;;;;;;21.76;45.70;96312.53;4968414;28;20015;-66
2022/10/27 10:55:54;;;;;;;;;;;;;;;21.81;44.94;96311.50;4968980;28;20101;-66
2022/10/27 10:58:20;;;;;;;;;;;;;;;21.82;45.21;96309.56;4967283;28;20015;-66
2022/10/27 11:00:59;;;;;;;;;;;;;;;21.88;45.20;96310.88;4968178;28;20053;-65
2022/10/27 11:03:26;;;;;;;;;;;;;;;22.04;44.83;96304.34;4969023;28;20026;-65
2022/10/27 11:05:53;;;;;;;;;;;;;;;22.02;44.35;96312.03;4968736;28;20015;-65
2022/10/27 11:08:22;;;;;;;;;;;;;;;22.03;44.46;96321.75;4967654;28;20390;-65
2022/10/27 11:10:48;;;;;;;;;;;;;;;21.97;43.81;96303.38;4968972;28;20493;-65
2022/10/27 11:13:18;;;;;;;;;;;;;;;22.19;43.66;96300.09;4969429;28;20097;-65
2022/10/27 11:15:53;;;;;;;;;;;;;;;22.30;44.26;96295.72;4968835;28;20396;-65
2022/10/27 11:18:26;;;;;;;;;;;;;;;22.28;44.89;96286.38;4969157;28;20117;-66
2022/10/27 11:20:55;;;;;;;;;;;;;;;22.50;43.74;96295.78;4967738;28;20081;-67
2022/10/27 11:23:27;;;;;;;;;;;;;;;22.54;43.42;96288.50;4969172;28;20043;-65
2022/10/27 11:25:55;;;;;;;;;;;;;;;22.47;42.67;96277.50;4968912;28;20081;-65
2022/10/27 11:28:29;;;;;;;;;;;;;;;22.53;42.83;96279.59;4968250;28;20025;-66
2022/10/27 11:31:16;;;;;;;;;;;;;;;22.57;42.71;96285.91;4969143;28;20010;-65
2022/10/27 11:33:41;;;;;;;;;;;;;;;22.66;43.32;96274.03;4967183;28;20073;-65
2022/10/27 11:36:22;;;;;;;;;;;;;;;22.82;42.71;96278.28;4967524;28;20062;-65
2022/10/27 11:38:52;;;;;;;;;;;;;;;22.84;42.59;96276.00;4969076;28;20011;-66
2022/10/27 11:41:21;;;;;;;;;;;;;;;22.88;42.67;96275.28;4968175;28;20041;-65
2022/10/27 11:43:53;;;;;;;;;;;;;;;22.78;42.25;96266.59;4967600;28;20046;-66
2022/10/27 11:46:18;;;;;;;;;;;;;;;22.88;41.94;96270.69;4966777;28;20109;-66
2022/10/27 11:48:53;;;;;;;;;;;;;;;23.08;42.24;96268.75;4968551;28;20102;-66
2022/10/27 11:51:28;;;;;;;;;;;;;;;23.05;41.92;96274.91;4968759;28;20020;-65
2022/10/27 11:53:55;;;;;;;;;;;;;;;23.21;41.33;96272.91;4968670;28;20010;-66
2022/10/27 11:56:39;;;;;;;;;;;;;;;23.31;41.35;96277.78;4966750;28;20015;-66
2022/10/27 11:59:07;;;;;;;;;;;;;;;23.12;40.87;96271.56;4968401;28;20379;-66
2022/10/27 12:01:32;;;;;;;;;;;;;;;22.91;41.14;96269.19;4968592;28;20058;-66
2022/10/27 12:04:04;;;;;;;;;;;;;;;23.27;40.39;96270.69;4968322;28;20498;-66
2022/10/27 12:06:34;;;;;;;;;;;;;;;23.40;40.55;96265.91;4967593;28;20015;-65
2022/10/27 12:09:17;;;;;;;;;;;;;;;23.28;40.69;96266.84;4966746;28;20105;-66
2022/10/27 12:11:51;;;;;;;;;;;;;;;23.50;40.44;96268.03;4968306;28;20477;-66
2022/10/27 12:14:16;;;;;;;;;;;;;;;23.52;39.78;96268.47;4968110;28;20011;-66
2022/10/27 12:16:45;;;;;;;;;;;;;;;23.58;39.69;96262.38;4965297;28;20019;-66
2022/10/27 12:19:10;;;;;;;;;;;;;;;23.66;39.75;96260.59;4968196;28;20667;-65
2022/10/27 12:21:35;;;;;;;;;;;;;;;23.72;39.78;96263.81;4966709;28;20018;-66
2022/10/27 12:24:06;;;;;;;;;;;;;;;23.74;39.55;96262.28;4968233;28;20011;-66
2022/10/27 12:26:35;;;;;;;;;;;;;;;23.80;38.74;96265.47;4967457;28;20019;-66
2022/10/27 12:29:02;;;;;;;;;;;;;;;23.70;39.02;96258.75;4965697;28;20025;-66
2022/10/27 12:31:28;;;;;;;;;;;;;;;23.82;38.77;96255.84;4967925;28;20220;-66
2022/10/27 12:33:54;;;;;;;;;;;;;;;23.75;39.33;96255.72;4968027;28;20056;-66
2022/10/27 12:36:42;;;;;;;;;;;;;;;23.76;38.51;96249.13;4967517;28;20425;-66
2022/10/27 12:39:21;;;;;;;;;;;;;;;23.92;38.76;96242.81;4964662;28;20019;-65
2022/10/27 12:41:49;;;;;;;;;;;;;;;23.97;38.65;96237.84;4967824;28;20007;-66
2022/10/27 12:44:20;;;;;;;;;;;;;;;23.94;38.65;96235.84;4967819;28;20072;-65
2022/10/27 12:46:54;;;;;;;;;;;;;;;24.06;38.53;96245.75;4968546;28;20035;-65
2022/10/27 12:49:19;;;;;;;;;;;;;;;24.11;38.81;96240.78;4969028;28;20023;-64
2022/10/27 12:51:50;;;;;;;;;;;;;;;24.10;38.34;96239.19;4970955;28;20011;-66